sensor_id;sensor_type;location;lat;lon;timestamp;temperature;humidity
23540;DHT22;11947;50.810;4.394;2024-01-25T00:00:55;9.60;99.90
23540;DHT22;11947;50.810;4.394;2024-01-25T00:03:21;9.50;99.90
23540;DHT22;11947;50.810;4.394;2024-01-25T00:05:47;9.50;99.90
23540;DHT22;11947;50.810;4.394;2024-01-25T00:08:12;9.40;99.90
23540;DHT22;11947;50.810;4.394;2024-01-25T00:10:38;9.40;99.90
23540;DHT22;11947;50.810;4.394;2024-01-25T00:13:04;9.30;99.90
23540;DHT22;11947;50.810;4.394;2024-01-25T00:15:29;9.20;99.90
23540;DHT22;11947;50.810;4.394;2024-01-25T00:17:55;9.20;99.90
23540;DHT22;11947;50.810;4.394;2024-01-25T00:20:22;9.30;99.90
23540;DHT22;11947;50.810;4.394;2024-01-25T00:22:47;9.30;99.90
23540;DHT22;11947;50.810;4.394;2024-01-25T00:25:13;9.30;99.90
23540;DHT22;11947;50.810;4.394;2024-01-25T00:27:39;9.20;99.90
23540;DHT22;11947;50.810;4.394;2024-01-25T00:30:05;9.20;99.90
23540;DHT22;11947;50.810;4.394;2024-01-25T00:32:30;9.10;99.90
23540;DHT22;11947;50.810;4.394;2024-01-25T00:34:56;9.10;99.90
23540;DHT22;11947;50.810;4.394;2024-01-25T00:37:22;9.00;99.90
23540;DHT22;11947;50.810;4.394;2024-01-25T00:39:48;9.10;99.90
23540;DHT22;11947;50.810;4.394;2024-01-25T00:42:16;9.00;99.90
23540;DHT22;11947;50.810;4.394;2024-01-25T00:44:42;8.80;99.90
23540;DHT22;11947;50.810;4.394;2024-01-25T00:47:08;8.90;99.90
23540;DHT22;11947;50.810;4.394;2024-01-25T00:49:35;8.80;99.90
23540;DHT22;11947;50.810;4.394;2024-01-25T00:52:02;8.80;99.90
23540;DHT22;11947;50.810;4.394;2024-01-25T00:54:29;8.80;99.90
23540;DHT22;11947;50.810;4.394;2024-01-25T00:56:55;8.80;99.90
23540;DHT22;11947;50.810;4.394;2024-01-25T00:59:21;9.00;99.90
23540;DHT22;11947;50.810;4.394;2024-01-25T01:01:47;8.90;99.90
23540;DHT22;11947;50.810;4.394;2024-01-25T01:04:14;8.90;99.90
23540;DHT22;11947;50.810;4.394;2024-01-25T01:06:40;8.90;99.90
23540;DHT22;11947;50.810;4.394;2024-01-25T01:09:06;8.80;99.90
23540;DHT22;11947;50.810;4.394;2024-01-25T01:11:32;8.70;99.90
23540;DHT22;11947;50.810;4.394;2024-01-25T01:13:57;8.90;99.90
23540;DHT22;11947;50.810;4.394;2024-01-25T01:16:23;8.80;99.90
23540;DHT22;11947;50.810;4.394;2024-01-25T01:18:49;8.70;99.90
23540;DHT22;11947;50.810;4.394;2024-01-25T01:21:14;8.60;99.90
23540;DHT22;11947;50.810;4.394;2024-01-25T01:23:40;8.70;99.90
23540;DHT22;11947;50.810;4.394;2024-01-25T01:26:06;8.60;99.90
23540;DHT22;11947;50.810;4.394;2024-01-25T01:28:32;8.80;99.90
23540;DHT22;11947;50.810;4.394;2024-01-25T01:30:58;8.70;99.90
23540;DHT22;11947;50.810;4.394;2024-01-25T01:33:24;8.70;99.90
23540;DHT22;11947;50.810;4.394;2024-01-25T01:35:49;8.50;99.90
23540;DHT22;11947;50.810;4.394;2024-01-25T01:38:15;8.40;99.90
23540;DHT22;11947;50.810;4.394;2024-01-25T01:40:40;8.40;99.90
23540;DHT22;11947;50.810;4.394;2024-01-25T01:43:06;8.40;99.90
23540;DHT22;11947;50.810;4.394;2024-01-25T01:45:32;8.40;99.90
23540;DHT22;11947;50.810;4.394;2024-01-25T01:47:58;8.30;99.90
23540;DHT22;11947;50.810;4.394;2024-01-25T01:50:24;8.30;99.90
23540;DHT22;11947;50.810;4.394;2024-01-25T01:52:50;8.30;99.90
23540;DHT22;11947;50.810;4.394;2024-01-25T01:55:17;8.30;99.90
23540;DHT22;11947;50.810;4.394;2024-01-25T01:57:43;8.20;99.90
23540;DHT22;11947;50.810;4.394;2024-01-25T02:00:10;8.20;99.90
23540;DHT22;11947;50.810;4.394;2024-01-25T02:02:36;8.40;99.90
23540;DHT22;11947;50.810;4.394;2024-01-25T02:05:01;8.40;99.90
23540;DHT22;11947;50.810;4.394;2024-01-25T02:07:28;8.50;99.90
23540;DHT22;11947;50.810;4.394;2024-01-25T02:09:55;8.30;99.90
23540;DHT22;11947;50.810;4.394;2024-01-25T02:12:21;8.30;99.90
23540;DHT22;11947;50.810;4.394;2024-01-25T02:14:46;8.20;99.90
23540;DHT22;11947;50.810;4.394;2024-01-25T02:17:12;8.20;99.90
23540;DHT22;11947;50.810;4.394;2024-01-25T02:19:37;8.20;99.90
23540;DHT22;11947;50.810;4.394;2024-01-25T02:22:05;8.20;99.90
23540;DHT22;11947;50.810;4.394;2024-01-25T02:24:30;8.20;99.90
23540;DHT22;11947;50.810;4.394;2024-01-25T02:26:56;8.20;99.90
23540;DHT22;11947;50.810;4.394;2024-01-25T02:29:22;8.10;99.90
23540;DHT22;11947;50.810;4.394;2024-01-25T02:31:48;8.00;99.90
23540;DHT22;11947;50.810;4.394;2024-01-25T02:34:13;8.10;99.90
23540;DHT22;11947;50.810;4.394;2024-01-25T02:36:39;8.00;99.90
23540;DHT22;11947;50.810;4.394;2024-01-25T02:39:05;8.10;99.90
23540;DHT22;11947;50.810;4.394;2024-01-25T02:41:33;7.90;99.90
23540;DHT22;11947;50.810;4.394;2024-01-25T02:44:00;7.90;99.90
23540;DHT22;11947;50.810;4.394;2024-01-25T02:46:26;7.90;99.90
23540;DHT22;11947;50.810;4.394;2024-01-25T02:48:51;7.80;99.90
23540;DHT22;11947;50.810;4.394;2024-01-25T02:51:17;7.80;99.90
23540;DHT22;11947;50.810;4.394;2024-01-25T02:53:43;7.80;99.90
23540;DHT22;11947;50.810;4.394;2024-01-25T02:56:08;7.80;99.90
23540;DHT22;11947;50.810;4.394;2024-01-25T02:58:34;7.60;99.90
23540;DHT22;11947;50.810;4.394;2024-01-25T03:00:59;7.50;99.90
23540;DHT22;11947;50.810;4.394;2024-01-25T03:03:25;7.50;99.90
23540;DHT22;11947;50.810;4.394;2024-01-25T03:05:54;7.50;99.90
23540;DHT22;11947;50.810;4.394;2024-01-25T03:08:19;7.50;99.90
23540;DHT22;11947;50.810;4.394;2024-01-25T03:10:46;7.50;99.90
23540;DHT22;11947;50.810;4.394;2024-01-25T03:13:15;7.60;99.90
23540;DHT22;11947;50.810;4.394;2024-01-25T03:15:42;7.60;99.90
23540;DHT22;11947;50.810;4.394;2024-01-25T03:18:08;7.50;99.90
23540;DHT22;11947;50.810;4.394;2024-01-25T03:20:33;7.40;99.90
23540;DHT22;11947;50.810;4.394;2024-01-25T03:22:59;7.50;99.90
23540;DHT22;11947;50.810;4.394;2024-01-25T03:25:24;7.50;99.90
23540;DHT22;11947;50.810;4.394;2024-01-25T03:27:50;7.50;99.90
23540;DHT22;11947;50.810;4.394;2024-01-25T03:30:16;7.40;99.90
23540;DHT22;11947;50.810;4.394;2024-01-25T03:32:41;7.40;99.90
23540;DHT22;11947;50.810;4.394;2024-01-25T03:35:07;7.40;99.90
23540;DHT22;11947;50.810;4.394;2024-01-25T03:37:33;7.40;99.90
23540;DHT22;11947;50.810;4.394;2024-01-25T03:39:58;7.40;99.90
23540;DHT22;11947;50.810;4.394;2024-01-25T03:42:24;7.30;99.90
23540;DHT22;11947;50.810;4.394;2024-01-25T03:44:51;7.20;99.90
23540;DHT22;11947;50.810;4.394;2024-01-25T03:47:17;7.30;99.90
23540;DHT22;11947;50.810;4.394;2024-01-25T03:49:43;7.40;99.90
23540;DHT22;11947;50.810;4.394;2024-01-25T03:52:09;7.30;99.90
23540;DHT22;11947;50.810;4.394;2024-01-25T03:54:34;7.40;99.90
23540;DHT22;11947;50.810;4.394;2024-01-25T03:57:00;7.40;99.90
23540;DHT22;11947;50.810;4.394;2024-01-25T03:59:25;7.40;99.90
23540;DHT22;11947;50.810;4.394;2024-01-25T04:01:51;7.30;99.90
23540;DHT22;11947;50.810;4.394;2024-01-25T04:04:17;7.20;99.90
23540;DHT22;11947;50.810;4.394;2024-01-25T04:06:43;7.20;99.90
23540;DHT22;11947;50.810;4.394;2024-01-25T04:09:09;7.10;99.90
23540;DHT22;11947;50.810;4.394;2024-01-25T04:11:36;7.20;99.90
23540;DHT22;11947;50.810;4.394;2024-01-25T04:14:02;7.20;99.90
23540;DHT22;11947;50.810;4.394;2024-01-25T04:16:28;7.10;99.90
23540;DHT22;11947;50.810;4.394;2024-01-25T04:18:54;7.20;99.90
23540;DHT22;11947;50.810;4.394;2024-01-25T04:21:19;7.10;99.90
23540;DHT22;11947;50.810;4.394;2024-01-25T04:23:45;7.00;99.90
23540;DHT22;11947;50.810;4.394;2024-01-25T04:26:11;7.00;99.90
23540;DHT22;11947;50.810;4.394;2024-01-25T04:28:37;7.00;99.90
23540;DHT22;11947;50.810;4.394;2024-01-25T04:31:03;7.00;99.90
23540;DHT22;11947;50.810;4.394;2024-01-25T04:33:29;6.90;99.90
23540;DHT22;11947;50.810;4.394;2024-01-25T04:35:55;6.80;99.90
23540;DHT22;11947;50.810;4.394;2024-01-25T04:38:21;6.90;99.90
23540;DHT22;11947;50.810;4.394;2024-01-25T04:40:47;7.00;99.90
23540;DHT22;11947;50.810;4.394;2024-01-25T04:43:13;6.90;99.90
23540;DHT22;11947;50.810;4.394;2024-01-25T04:45:39;7.00;99.90
23540;DHT22;11947;50.810;4.394;2024-01-25T04:48:06;7.00;99.90
23540;DHT22;11947;50.810;4.394;2024-01-25T04:50:31;7.00;99.90
23540;DHT22;11947;50.810;4.394;2024-01-25T04:52:57;6.90;99.90
23540;DHT22;11947;50.810;4.394;2024-01-25T04:55:23;6.80;99.90
23540;DHT22;11947;50.810;4.394;2024-01-25T04:57:49;6.80;99.90
23540;DHT22;11947;50.810;4.394;2024-01-25T05:00:22;6.90;99.90
23540;DHT22;11947;50.810;4.394;2024-01-25T05:02:48;6.70;99.90
23540;DHT22;11947;50.810;4.394;2024-01-25T05:05:14;6.70;99.90
23540;DHT22;11947;50.810;4.394;2024-01-25T05:07:40;6.50;99.90
23540;DHT22;11947;50.810;4.394;2024-01-25T05:10:06;6.50;99.90
23540;DHT22;11947;50.810;4.394;2024-01-25T05:12:33;6.50;99.90
23540;DHT22;11947;50.810;4.394;2024-01-25T05:14:58;6.50;99.90
23540;DHT22;11947;50.810;4.394;2024-01-25T05:17:24;6.60;99.90
23540;DHT22;11947;50.810;4.394;2024-01-25T05:19:50;6.50;99.90
23540;DHT22;11947;50.810;4.394;2024-01-25T05:22:16;6.50;99.90
23540;DHT22;11947;50.810;4.394;2024-01-25T05:24:41;6.50;99.90
23540;DHT22;11947;50.810;4.394;2024-01-25T05:27:07;6.50;99.90
23540;DHT22;11947;50.810;4.394;2024-01-25T05:29:33;6.40;99.90
23540;DHT22;11947;50.810;4.394;2024-01-25T05:31:59;6.40;99.90
23540;DHT22;11947;50.810;4.394;2024-01-25T05:34:24;6.30;99.90
23540;DHT22;11947;50.810;4.394;2024-01-25T05:36:50;6.30;99.90
23540;DHT22;11947;50.810;4.394;2024-01-25T05:39:16;6.40;99.90
23540;DHT22;11947;50.810;4.394;2024-01-25T05:41:42;6.30;99.90
23540;DHT22;11947;50.810;4.394;2024-01-25T05:44:12;6.30;99.90
23540;DHT22;11947;50.810;4.394;2024-01-25T05:46:37;6.30;99.90
23540;DHT22;11947;50.810;4.394;2024-01-25T05:49:06;6.30;99.90
23540;DHT22;11947;50.810;4.394;2024-01-25T05:51:31;6.40;99.90
23540;DHT22;11947;50.810;4.394;2024-01-25T05:53:57;6.50;99.90
23540;DHT22;11947;50.810;4.394;2024-01-25T05:56:23;6.60;99.90
23540;DHT22;11947;50.810;4.394;2024-01-25T05:58:49;6.50;99.90
23540;DHT22;11947;50.810;4.394;2024-01-25T06:01:14;6.60;99.90
23540;DHT22;11947;50.810;4.394;2024-01-25T06:03:40;6.60;99.90
23540;DHT22;11947;50.810;4.394;2024-01-25T06:06:06;6.70;99.90
23540;DHT22;11947;50.810;4.394;2024-01-25T06:08:33;6.70;99.90
23540;DHT22;11947;50.810;4.394;2024-01-25T06:11:00;6.80;99.90
23540;DHT22;11947;50.810;4.394;2024-01-25T06:13:25;6.70;99.90
23540;DHT22;11947;50.810;4.394;2024-01-25T06:15:51;6.70;99.90
23540;DHT22;11947;50.810;4.394;2024-01-25T06:18:16;6.60;99.90
23540;DHT22;11947;50.810;4.394;2024-01-25T06:20:42;6.60;99.90
23540;DHT22;11947;50.810;4.394;2024-01-25T06:23:09;6.50;99.90
23540;DHT22;11947;50.810;4.394;2024-01-25T06:25:35;6.60;99.90
23540;DHT22;11947;50.810;4.394;2024-01-25T06:28:01;6.60;99.90
23540;DHT22;11947;50.810;4.394;2024-01-25T06:30:27;6.70;99.90
23540;DHT22;11947;50.810;4.394;2024-01-25T06:32:53;6.80;99.90
23540;DHT22;11947;50.810;4.394;2024-01-25T06:35:18;6.80;99.90
23540;DHT22;11947;50.810;4.394;2024-01-25T06:37:44;6.70;99.90
23540;DHT22;11947;50.810;4.394;2024-01-25T06:40:10;6.70;99.90
23540;DHT22;11947;50.810;4.394;2024-01-25T06:42:36;6.70;99.90
23540;DHT22;11947;50.810;4.394;2024-01-25T06:45:01;6.70;99.90
23540;DHT22;11947;50.810;4.394;2024-01-25T06:47:27;6.80;99.90
23540;DHT22;11947;50.810;4.394;2024-01-25T06:49:53;6.90;99.90
23540;DHT22;11947;50.810;4.394;2024-01-25T06:52:18;6.90;99.90
23540;DHT22;11947;50.810;4.394;2024-01-25T06:54:44;6.90;99.90
23540;DHT22;11947;50.810;4.394;2024-01-25T06:57:10;7.00;99.90
23540;DHT22;11947;50.810;4.394;2024-01-25T06:59:36;7.10;99.90
23540;DHT22;11947;50.810;4.394;2024-01-25T07:02:01;7.00;99.90
23540;DHT22;11947;50.810;4.394;2024-01-25T07:04:30;7.00;99.90
23540;DHT22;11947;50.810;4.394;2024-01-25T07:06:55;7.10;99.90
23540;DHT22;11947;50.810;4.394;2024-01-25T07:09:21;7.10;99.90
23540;DHT22;11947;50.810;4.394;2024-01-25T07:11:47;7.20;99.90
23540;DHT22;11947;50.810;4.394;2024-01-25T07:14:12;7.30;99.90
23540;DHT22;11947;50.810;4.394;2024-01-25T07:16:38;7.30;99.90
23540;DHT22;11947;50.810;4.394;2024-01-25T07:19:03;7.30;99.90
23540;DHT22;11947;50.810;4.394;2024-01-25T07:21:30;7.30;99.90
23540;DHT22;11947;50.810;4.394;2024-01-25T07:24:03;7.20;99.90
23540;DHT22;11947;50.810;4.394;2024-01-25T07:26:32;7.10;99.90
23540;DHT22;11947;50.810;4.394;2024-01-25T07:28:58;7.10;99.90
23540;DHT22;11947;50.810;4.394;2024-01-25T07:31:28;7.10;99.90
23540;DHT22;11947;50.810;4.394;2024-01-25T07:33:54;7.10;99.90
23540;DHT22;11947;50.810;4.394;2024-01-25T07:36:20;7.20;99.90
23540;DHT22;11947;50.810;4.394;2024-01-25T07:38:46;7.30;99.90
23540;DHT22;11947;50.810;4.394;2024-01-25T07:41:13;7.10;99.90
23540;DHT22;11947;50.810;4.394;2024-01-25T07:43:39;6.90;99.90
23540;DHT22;11947;50.810;4.394;2024-01-25T07:46:04;6.90;99.90
23540;DHT22;11947;50.810;4.394;2024-01-25T07:48:30;7.10;99.90
23540;DHT22;11947;50.810;4.394;2024-01-25T07:50:56;7.10;99.90
23540;DHT22;11947;50.810;4.394;2024-01-25T07:53:22;7.20;99.90
23540;DHT22;11947;50.810;4.394;2024-01-25T07:55:48;7.20;99.90
23540;DHT22;11947;50.810;4.394;2024-01-25T07:58:15;7.20;99.90
23540;DHT22;11947;50.810;4.394;2024-01-25T08:00:41;7.10;99.90
23540;DHT22;11947;50.810;4.394;2024-01-25T08:03:08;6.80;99.90
23540;DHT22;11947;50.810;4.394;2024-01-25T08:05:33;6.90;99.90
23540;DHT22;11947;50.810;4.394;2024-01-25T08:07:59;6.90;99.90
23540;DHT22;11947;50.810;4.394;2024-01-25T08:10:25;6.70;99.90
23540;DHT22;11947;50.810;4.394;2024-01-25T08:12:50;6.80;99.90
23540;DHT22;11947;50.810;4.394;2024-01-25T08:15:16;7.00;99.90
23540;DHT22;11947;50.810;4.394;2024-01-25T08:17:42;7.20;99.90
23540;DHT22;11947;50.810;4.394;2024-01-25T08:20:09;7.40;99.90
23540;DHT22;11947;50.810;4.394;2024-01-25T08:22:36;7.40;99.90
23540;DHT22;11947;50.810;4.394;2024-01-25T08:25:02;7.50;99.90
23540;DHT22;11947;50.810;4.394;2024-01-25T08:27:30;7.40;99.90
23540;DHT22;11947;50.810;4.394;2024-01-25T08:29:55;7.50;99.90
23540;DHT22;11947;50.810;4.394;2024-01-25T08:32:21;7.50;99.90
23540;DHT22;11947;50.810;4.394;2024-01-25T08:34:47;7.60;99.90
23540;DHT22;11947;50.810;4.394;2024-01-25T08:37:12;7.60;99.90
23540;DHT22;11947;50.810;4.394;2024-01-25T08:39:38;7.70;99.90
23540;DHT22;11947;50.810;4.394;2024-01-25T08:42:04;7.80;99.90
23540;DHT22;11947;50.810;4.394;2024-01-25T08:44:32;7.90;99.90
23540;DHT22;11947;50.810;4.394;2024-01-25T08:46:57;8.00;99.90
23540;DHT22;11947;50.810;4.394;2024-01-25T08:49:23;8.10;99.90
23540;DHT22;11947;50.810;4.394;2024-01-25T08:51:49;8.20;99.90
23540;DHT22;11947;50.810;4.394;2024-01-25T08:54:15;8.20;99.90
23540;DHT22;11947;50.810;4.394;2024-01-25T08:56:41;8.30;99.90
23540;DHT22;11947;50.810;4.394;2024-01-25T08:59:06;8.40;99.90
23540;DHT22;11947;50.810;4.394;2024-01-25T09:01:32;8.40;99.90
23540;DHT22;11947;50.810;4.394;2024-01-25T09:03:58;8.30;99.90
23540;DHT22;11947;50.810;4.394;2024-01-25T09:06:28;8.20;99.90
23540;DHT22;11947;50.810;4.394;2024-01-25T09:08:55;8.10;99.90
23540;DHT22;11947;50.810;4.394;2024-01-25T09:11:21;8.20;99.90
23540;DHT22;11947;50.810;4.394;2024-01-25T09:13:47;8.50;99.90
23540;DHT22;11947;50.810;4.394;2024-01-25T09:16:13;8.60;99.90
23540;DHT22;11947;50.810;4.394;2024-01-25T09:18:39;8.70;99.90
23540;DHT22;11947;50.810;4.394;2024-01-25T09:21:05;8.70;99.90
23540;DHT22;11947;50.810;4.394;2024-01-25T09:23:31;8.80;99.90
23540;DHT22;11947;50.810;4.394;2024-01-25T09:25:57;9.00;99.90
23540;DHT22;11947;50.810;4.394;2024-01-25T09:28:22;9.00;99.90
23540;DHT22;11947;50.810;4.394;2024-01-25T09:30:48;9.10;99.90
23540;DHT22;11947;50.810;4.394;2024-01-25T09:33:14;9.00;99.90
23540;DHT22;11947;50.810;4.394;2024-01-25T09:35:40;9.10;99.90
23540;DHT22;11947;50.810;4.394;2024-01-25T09:38:06;9.30;99.90
23540;DHT22;11947;50.810;4.394;2024-01-25T09:40:31;9.30;99.90
23540;DHT22;11947;50.810;4.394;2024-01-25T09:42:59;9.50;99.90
23540;DHT22;11947;50.810;4.394;2024-01-25T09:45:24;9.50;99.90
23540;DHT22;11947;50.810;4.394;2024-01-25T09:47:50;9.60;99.90
23540;DHT22;11947;50.810;4.394;2024-01-25T09:50:16;9.50;99.90
23540;DHT22;11947;50.810;4.394;2024-01-25T09:52:53;9.40;99.90
23540;DHT22;11947;50.810;4.394;2024-01-25T09:55:22;9.40;99.90
23540;DHT22;11947;50.810;4.394;2024-01-25T09:57:53;9.60;99.90
23540;DHT22;11947;50.810;4.394;2024-01-25T10:00:19;9.70;99.90
23540;DHT22;11947;50.810;4.394;2024-01-25T10:02:48;9.80;99.90
23540;DHT22;11947;50.810;4.394;2024-01-25T10:05:15;9.90;99.90
23540;DHT22;11947;50.810;4.394;2024-01-25T10:07:42;10.00;99.90
23540;DHT22;11947;50.810;4.394;2024-01-25T10:10:09;10.20;99.90
23540;DHT22;11947;50.810;4.394;2024-01-25T10:12:36;10.30;99.90
23540;DHT22;11947;50.810;4.394;2024-01-25T10:15:03;10.40;99.90
23540;DHT22;11947;50.810;4.394;2024-01-25T10:17:30;10.10;99.90
23540;DHT22;11947;50.810;4.394;2024-01-25T10:19:55;10.20;99.90
23540;DHT22;11947;50.810;4.394;2024-01-25T10:22:21;10.40;99.90
23540;DHT22;11947;50.810;4.394;2024-01-25T10:24:48;10.70;99.90
23540;DHT22;11947;50.810;4.394;2024-01-25T10:27:16;10.50;99.90
23540;DHT22;11947;50.810;4.394;2024-01-25T10:29:42;10.30;99.90
23540;DHT22;11947;50.810;4.394;2024-01-25T10:32:09;10.40;99.90
23540;DHT22;11947;50.810;4.394;2024-01-25T10:34:38;10.40;99.90
23540;DHT22;11947;50.810;4.394;2024-01-25T10:37:07;10.20;99.90
23540;DHT22;11947;50.810;4.394;2024-01-25T10:39:34;10.20;99.90
23540;DHT22;11947;50.810;4.394;2024-01-25T10:41:59;10.10;99.90
23540;DHT22;11947;50.810;4.394;2024-01-25T10:44:26;10.30;99.90
23540;DHT22;11947;50.810;4.394;2024-01-25T10:46:52;10.20;99.90
23540;DHT22;11947;50.810;4.394;2024-01-25T10:49:20;10.20;99.90
23540;DHT22;11947;50.810;4.394;2024-01-25T10:51:46;10.20;99.90
23540;DHT22;11947;50.810;4.394;2024-01-25T10:54:12;10.30;99.90
23540;DHT22;11947;50.810;4.394;2024-01-25T10:56:42;10.30;99.90
23540;DHT22;11947;50.810;4.394;2024-01-25T10:59:10;10.50;99.90
23540;DHT22;11947;50.810;4.394;2024-01-25T11:01:36;10.40;99.90
23540;DHT22;11947;50.810;4.394;2024-01-25T11:04:02;10.30;99.90
23540;DHT22;11947;50.810;4.394;2024-01-25T11:06:28;10.40;99.90
23540;DHT22;11947;50.810;4.394;2024-01-25T11:09:07;10.60;99.90
23540;DHT22;11947;50.810;4.394;2024-01-25T11:11:35;10.60;99.90
23540;DHT22;11947;50.810;4.394;2024-01-25T11:14:01;10.50;99.90
23540;DHT22;11947;50.810;4.394;2024-01-25T11:16:31;10.50;99.90
23540;DHT22;11947;50.810;4.394;2024-01-25T11:18:59;10.70;99.90
23540;DHT22;11947;50.810;4.394;2024-01-25T11:21:41;10.60;99.90
23540;DHT22;11947;50.810;4.394;2024-01-25T11:24:24;10.60;99.90
23540;DHT22;11947;50.810;4.394;2024-01-25T11:26:53;10.60;99.90
23540;DHT22;11947;50.810;4.394;2024-01-25T11:29:21;10.60;99.90
23540;DHT22;11947;50.810;4.394;2024-01-25T11:31:50;10.80;99.90
23540;DHT22;11947;50.810;4.394;2024-01-25T11:34:16;10.80;99.90
23540;DHT22;11947;50.810;4.394;2024-01-25T11:36:43;10.70;99.90
23540;DHT22;11947;50.810;4.394;2024-01-25T11:39:13;10.80;99.90
23540;DHT22;11947;50.810;4.394;2024-01-25T11:41:44;10.70;99.90
23540;DHT22;11947;50.810;4.394;2024-01-25T11:44:11;10.80;99.90
23540;DHT22;11947;50.810;4.394;2024-01-25T11:46:36;10.80;99.90
23540;DHT22;11947;50.810;4.394;2024-01-25T11:49:02;10.60;99.90
23540;DHT22;11947;50.810;4.394;2024-01-25T11:51:28;10.60;99.90
23540;DHT22;11947;50.810;4.394;2024-01-25T11:53:54;10.30;99.90
23540;DHT22;11947;50.810;4.394;2024-01-25T11:56:31;10.30;99.90
23540;DHT22;11947;50.810;4.394;2024-01-25T11:58:58;10.30;99.90
23540;DHT22;11947;50.810;4.394;2024-01-25T12:01:27;10.50;99.90
23540;DHT22;11947;50.810;4.394;2024-01-25T12:03:54;10.60;99.90
23540;DHT22;11947;50.810;4.394;2024-01-25T12:06:20;10.50;99.90
23540;DHT22;11947;50.810;4.394;2024-01-25T12:08:45;10.50;99.90
23540;DHT22;11947;50.810;4.394;2024-01-25T12:11:13;10.40;99.90
23540;DHT22;11947;50.810;4.394;2024-01-25T12:13:40;10.50;99.90
23540;DHT22;11947;50.810;4.394;2024-01-25T12:16:07;10.60;99.90
23540;DHT22;11947;50.810;4.394;2024-01-25T12:18:33;10.70;99.90
23540;DHT22;11947;50.810;4.394;2024-01-25T12:21:01;10.60;99.90
23540;DHT22;11947;50.810;4.394;2024-01-25T12:23:35;10.70;99.90
23540;DHT22;11947;50.810;4.394;2024-01-25T12:26:08;10.40;99.90
23540;DHT22;11947;50.810;4.394;2024-01-25T12:28:34;10.40;99.90
23540;DHT22;11947;50.810;4.394;2024-01-25T12:31:01;10.30;99.90
23540;DHT22;11947;50.810;4.394;2024-01-25T12:33:29;10.40;99.90
23540;DHT22;11947;50.810;4.394;2024-01-25T12:35:55;10.40;99.90
23540;DHT22;11947;50.810;4.394;2024-01-25T12:38:22;10.40;99.90
23540;DHT22;11947;50.810;4.394;2024-01-25T12:40:49;10.40;99.90
23540;DHT22;11947;50.810;4.394;2024-01-25T12:43:19;10.40;99.90
23540;DHT22;11947;50.810;4.394;2024-01-25T12:45:47;10.30;99.90
23540;DHT22;11947;50.810;4.394;2024-01-25T12:48:12;10.40;99.90
23540;DHT22;11947;50.810;4.394;2024-01-25T12:50:38;10.40;99.90
23540;DHT22;11947;50.810;4.394;2024-01-25T12:53:05;10.40;99.90
23540;DHT22;11947;50.810;4.394;2024-01-25T12:55:31;10.40;99.90
23540;DHT22;11947;50.810;4.394;2024-01-25T12:57:58;10.50;99.90
23540;DHT22;11947;50.810;4.394;2024-01-25T13:00:24;10.40;99.90
23540;DHT22;11947;50.810;4.394;2024-01-25T13:02:50;10.50;99.90
23540;DHT22;11947;50.810;4.394;2024-01-25T13:05:16;10.40;99.90
23540;DHT22;11947;50.810;4.394;2024-01-25T13:07:42;10.70;99.90
23540;DHT22;11947;50.810;4.394;2024-01-25T13:10:10;10.80;99.90
23540;DHT22;11947;50.810;4.394;2024-01-25T13:12:39;10.60;99.90
23540;DHT22;11947;50.810;4.394;2024-01-25T13:15:05;10.60;99.90
23540;DHT22;11947;50.810;4.394;2024-01-25T13:17:31;10.60;99.90
23540;DHT22;11947;50.810;4.394;2024-01-25T13:20:00;10.80;99.90
23540;DHT22;11947;50.810;4.394;2024-01-25T13:22:26;10.90;99.90
23540;DHT22;11947;50.810;4.394;2024-01-25T13:24:52;11.00;99.90
23540;DHT22;11947;50.810;4.394;2024-01-25T13:27:18;11.00;99.90
23540;DHT22;11947;50.810;4.394;2024-01-25T13:29:44;11.00;99.90
23540;DHT22;11947;50.810;4.394;2024-01-25T13:32:09;11.00;99.90
23540;DHT22;11947;50.810;4.394;2024-01-25T13:34:36;11.10;99.90
23540;DHT22;11947;50.810;4.394;2024-01-25T13:37:01;11.00;99.90
23540;DHT22;11947;50.810;4.394;2024-01-25T13:39:27;10.90;99.90
23540;DHT22;11947;50.810;4.394;2024-01-25T13:41:54;11.10;99.90
23540;DHT22;11947;50.810;4.394;2024-01-25T13:44:22;11.20;99.90
23540;DHT22;11947;50.810;4.394;2024-01-25T13:46:47;11.10;99.90
23540;DHT22;11947;50.810;4.394;2024-01-25T13:49:13;11.10;99.90
23540;DHT22;11947;50.810;4.394;2024-01-25T13:51:38;11.10;99.90
23540;DHT22;11947;50.810;4.394;2024-01-25T13:54:04;11.10;99.90
23540;DHT22;11947;50.810;4.394;2024-01-25T13:56:30;11.00;99.90
23540;DHT22;11947;50.810;4.394;2024-01-25T13:58:56;11.00;99.90
23540;DHT22;11947;50.810;4.394;2024-01-25T14:01:21;11.10;99.90
23540;DHT22;11947;50.810;4.394;2024-01-25T14:03:47;11.20;99.90
23540;DHT22;11947;50.810;4.394;2024-01-25T14:06:13;11.20;99.90
23540;DHT22;11947;50.810;4.394;2024-01-25T14:08:38;11.10;99.90
23540;DHT22;11947;50.810;4.394;2024-01-25T14:11:04;11.10;99.90
23540;DHT22;11947;50.810;4.394;2024-01-25T14:13:32;11.10;99.90
23540;DHT22;11947;50.810;4.394;2024-01-25T14:15:57;11.10;99.90
23540;DHT22;11947;50.810;4.394;2024-01-25T14:18:26;11.00;99.90
23540;DHT22;11947;50.810;4.394;2024-01-25T14:20:52;11.10;99.90
23540;DHT22;11947;50.810;4.394;2024-01-25T14:23:18;11.10;99.90
23540;DHT22;11947;50.810;4.394;2024-01-25T14:25:43;11.10;99.90
23540;DHT22;11947;50.810;4.394;2024-01-25T14:28:11;11.00;99.90
23540;DHT22;11947;50.810;4.394;2024-01-25T14:30:36;10.90;99.90
23540;DHT22;11947;50.810;4.394;2024-01-25T14:33:02;10.90;99.90
23540;DHT22;11947;50.810;4.394;2024-01-25T14:35:29;10.90;99.90
23540;DHT22;11947;50.810;4.394;2024-01-25T14:37:56;10.90;99.90
23540;DHT22;11947;50.810;4.394;2024-01-25T14:40:22;11.10;99.90
23540;DHT22;11947;50.810;4.394;2024-01-25T14:42:48;11.10;99.90
23540;DHT22;11947;50.810;4.394;2024-01-25T14:45:14;11.10;99.90
23540;DHT22;11947;50.810;4.394;2024-01-25T14:47:39;11.10;99.90
23540;DHT22;11947;50.810;4.394;2024-01-25T14:50:06;11.10;99.90
23540;DHT22;11947;50.810;4.394;2024-01-25T14:52:32;11.10;99.90
23540;DHT22;11947;50.810;4.394;2024-01-25T14:55:04;10.90;99.90
23540;DHT22;11947;50.810;4.394;2024-01-25T14:57:30;10.90;99.90
23540;DHT22;11947;50.810;4.394;2024-01-25T14:59:56;10.90;99.90
23540;DHT22;11947;50.810;4.394;2024-01-25T15:02:22;10.80;99.90
23540;DHT22;11947;50.810;4.394;2024-01-25T15:04:48;10.90;99.90
23540;DHT22;11947;50.810;4.394;2024-01-25T15:07:14;10.90;99.90
23540;DHT22;11947;50.810;4.394;2024-01-25T15:09:47;10.80;99.90
23540;DHT22;11947;50.810;4.394;2024-01-25T15:12:14;10.80;99.90
23540;DHT22;11947;50.810;4.394;2024-01-25T15:14:40;10.80;99.90
23540;DHT22;11947;50.810;4.394;2024-01-25T15:17:06;10.80;99.90
23540;DHT22;11947;50.810;4.394;2024-01-25T15:19:32;10.90;99.90
23540;DHT22;11947;50.810;4.394;2024-01-25T15:21:58;10.90;99.90
23540;DHT22;11947;50.810;4.394;2024-01-25T15:24:24;10.80;99.90
23540;DHT22;11947;50.810;4.394;2024-01-25T15:26:51;10.90;99.90
23540;DHT22;11947;50.810;4.394;2024-01-25T15:29:17;10.90;99.90
23540;DHT22;11947;50.810;4.394;2024-01-25T15:31:43;11.00;99.90
23540;DHT22;11947;50.810;4.394;2024-01-25T15:34:09;11.10;99.90